createdAt,value
2017-07-28T00:00:16.241Z,0
2017-07-28T00:01:26.196Z,0
2017-07-28T00:02:36.469Z,0
2017-07-28T00:03:46.741Z,0
2017-07-28T00:04:56.697Z,0
2017-07-28T00:06:06.677Z,0
2017-07-28T00:07:16.946Z,0
2017-07-28T00:08:27.218Z,0
2017-07-28T00:09:36.859Z,0
2017-07-28T00:10:46.815Z,0
2017-07-28T00:11:57.084Z,0
2017-07-28T00:13:07.046Z,0
2017-07-28T00:14:17.003Z,0
2017-07-28T00:15:27.280Z,0
2017-07-28T00:16:37.552Z,0
2017-07-28T00:17:47.826Z,0
2017-07-28T00:18:58.096Z,0
2017-07-28T00:20:08.057Z,0
2017-07-28T00:21:18.012Z,0
2017-07-28T00:22:27.967Z,0
2017-07-28T00:23:38.244Z,0
2017-07-28T00:24:48.518Z,0
2017-07-28T00:25:58.788Z,0
2017-07-28T00:27:08.751Z,0
2017-07-28T00:28:19.024Z,0
2017-07-28T00:29:28.981Z,0
2017-07-28T00:30:38.620Z,0
2017-07-28T00:31:48.893Z,0
2017-07-28T00:32:58.850Z,0
2017-07-28T00:34:09.121Z,0
2017-07-28T00:35:19.076Z,0
2017-07-28T00:36:29.031Z,0
2017-07-28T00:37:38.992Z,0
2017-07-28T00:38:49.262Z,0
2017-07-28T00:39:59.537Z,0
2017-07-28T00:41:09.811Z,0
2017-07-28T00:42:19.479Z,0
2017-07-28T00:43:29.774Z,0
2017-07-28T00:44:40.049Z,0
2017-07-28T00:45:50.318Z,0
2017-07-28T00:47:00.276Z,0
2017-07-28T00:48:10.545Z,0
2017-07-28T00:49:20.814Z,0
2017-07-28T00:50:30.771Z,0
2017-07-28T00:51:41.044Z,0
2017-07-28T00:52:51.000Z,0
2017-07-28T00:54:00.975Z,0
2017-07-28T00:55:11.247Z,0
2017-07-28T00:56:21.518Z,0
2017-07-28T00:57:31.482Z,0
2017-07-28T00:58:41.755Z,0
2017-07-28T00:59:52.031Z,0
2017-07-28T01:01:02.301Z,0
2017-07-28T01:02:12.572Z,0
2017-07-28T01:03:22.839Z,0
2017-07-28T01:04:32.481Z,0
2017-07-28T01:05:42.752Z,0
2017-07-28T01:06:53.025Z,0
2017-07-28T01:08:03.298Z,0
2017-07-28T01:09:13.566Z,0
2017-07-28T01:10:23.835Z,0
2017-07-28T01:11:34.105Z,0
2017-07-28T01:12:44.073Z,0
2017-07-28T01:13:54.355Z,0
2017-07-28T01:15:04.653Z,0
2017-07-28T01:16:14.613Z,0
2017-07-28T01:17:24.571Z,0
2017-07-28T01:18:34.843Z,0
2017-07-28T01:19:45.119Z,0
2017-07-28T01:20:55.074Z,0
2017-07-28T01:22:05.339Z,0
2017-07-28T01:23:15.300Z,0
2017-07-28T01:24:25.572Z,0
2017-07-28T01:25:35.850Z,0
2017-07-28T01:26:46.119Z,0
2017-07-28T01:27:56.383Z,0
2017-07-28T01:29:06.337Z,0
2017-07-28T01:30:16.290Z,0
2017-07-28T01:31:26.248Z,0
2017-07-28T01:32:36.517Z,0
2017-07-28T01:33:46.784Z,0
2017-07-28T01:34:56.740Z,0
2017-07-28T01:36:06.698Z,0
2017-07-28T01:37:16.970Z,0
2017-07-28T01:38:26.931Z,0
2017-07-28T01:39:36.888Z,0
2017-07-28T01:40:47.157Z,0
2017-07-28T01:41:57.435Z,0
2017-07-28T01:43:07.394Z,0
2017-07-28T01:44:17.665Z,0
2017-07-28T01:45:27.933Z,0
2017-07-28T01:46:38.205Z,0
2017-07-28T01:47:48.162Z,0
2017-07-28T01:48:58.428Z,0
2017-07-28T01:50:08.398Z,0
2017-07-28T01:51:18.670Z,0
2017-07-28T01:52:28.942Z,0
2017-07-28T01:53:39.215Z,0
2017-07-28T01:54:49.480Z,0
2017-07-28T01:55:59.757Z,0
2017-07-28T01:57:10.030Z,0
2017-07-28T01:58:20.297Z,0
2017-07-28T01:59:29.941Z,0
2017-07-28T02:00:39.894Z,0
2017-07-28T02:01:50.159Z,0
2017-07-28T02:03:00.430Z,0
2017-07-28T02:04:10.385Z,0
2017-07-28T02:05:20.338Z,0
2017-07-28T02:06:30.609Z,0
2017-07-28T02:07:40.573Z,0
2017-07-28T02:08:50.849Z,0
2017-07-28T02:10:01.116Z,0
2017-07-28T02:11:11.385Z,0
2017-07-28T02:12:21.334Z,0
2017-07-28T02:13:31.283Z,0
2017-07-28T02:14:40.923Z,0
2017-07-28T02:15:51.190Z,0
2017-07-28T02:17:01.142Z,0
2017-07-28T02:18:11.417Z,0
2017-07-28T02:19:21.372Z,0
2017-07-28T02:20:31.329Z,0
2017-07-28T02:21:41.281Z,0
2017-07-28T02:22:51.564Z,0
2017-07-28T02:24:01.836Z,0
2017-07-28T02:25:11.794Z,0
2017-07-28T02:26:22.067Z,0
2017-07-28T02:27:31.712Z,0
2017-07-28T02:28:41.699Z,0
2017-07-28T02:29:51.976Z,0
2017-07-28T02:31:02.247Z,0
2017-07-28T02:32:12.554Z,0
2017-07-28T02:33:22.198Z,0
2017-07-28T02:34:31.845Z,0
2017-07-28T02:35:42.115Z,0
2017-07-28T02:36:52.073Z,0
2017-07-28T02:38:02.359Z,0
2017-07-28T02:39:12.641Z,0
2017-07-28T02:40:22.601Z,0
2017-07-28T02:41:32.876Z,0
2017-07-28T02:42:43.145Z,0
2017-07-28T02:43:53.417Z,0
2017-07-28T02:45:03.698Z,0
2017-07-28T02:46:13.343Z,0
2017-07-28T02:47:23.613Z,0
2017-07-28T02:48:33.879Z,0
2017-07-28T02:49:43.833Z,0
2017-07-28T02:50:53.787Z,0
2017-07-28T02:52:03.738Z,0
2017-07-28T02:53:14.007Z,5
2017-07-28T02:54:23.959Z,5
2017-07-28T02:55:33.910Z,5
2017-07-28T02:56:44.178Z,5
2017-07-28T02:57:54.472Z,5
2017-07-28T02:59:04.741Z,5
2017-07-28T03:00:15.011Z,5
2017-07-28T03:01:25.286Z,5
2017-07-28T03:02:35.557Z,5
2017-07-28T03:03:45.826Z,10
2017-07-28T03:04:56.092Z,10
2017-07-28T03:06:06.362Z,10
2017-07-28T03:07:16.004Z,10
2017-07-28T03:08:26.275Z,10
2017-07-28T03:09:36.552Z,10
2017-07-28T03:10:46.508Z,15
2017-07-28T03:11:56.151Z,15
2017-07-28T03:13:06.430Z,15
2017-07-28T03:14:16.703Z,15
2017-07-28T03:15:26.983Z,15
2017-07-28T03:16:37.298Z,20
2017-07-28T03:17:47.568Z,20
2017-07-28T03:18:57.839Z,20
2017-07-28T03:20:07.799Z,20
2017-07-28T03:21:18.070Z,20
2017-07-28T03:22:28.026Z,20
2017-07-28T03:23:37.981Z,20
2017-07-28T03:24:48.256Z,25
2017-07-28T03:25:58.524Z,25
2017-07-28T03:27:08.480Z,25
2017-07-28T03:28:18.436Z,25
2017-07-28T03:29:28.711Z,30
2017-07-28T03:30:38.996Z,30
2017-07-28T03:31:48.951Z,30
2017-07-28T03:32:58.906Z,35
2017-07-28T03:34:08.552Z,35
2017-07-28T03:35:18.505Z,35
2017-07-28T03:36:28.464Z,40
2017-07-28T03:37:38.424Z,45
2017-07-28T03:38:48.698Z,45
2017-07-28T03:39:58.965Z,45
2017-07-28T03:41:09.236Z,50
2017-07-28T03:42:19.506Z,50
2017-07-28T03:43:29.459Z,50
2017-07-28T03:44:39.415Z,50
2017-07-28T03:45:49.373Z,55
2017-07-28T03:46:59.331Z,55
2017-07-28T03:48:08.972Z,55
2017-07-28T03:49:19.242Z,55
2017-07-28T03:50:29.519Z,55
2017-07-28T03:51:39.474Z,55
2017-07-28T03:52:49.751Z,55
2017-07-28T03:53:59.706Z,55
2017-07-28T03:55:09.657Z,55
2017-07-28T03:56:18.983Z,55
2017-07-28T03:57:29.251Z,55
2017-07-28T03:58:39.211Z,55
2017-07-28T03:59:49.483Z,55
2017-07-28T04:00:59.759Z,55
2017-07-28T04:02:10.028Z,55
2017-07-28T04:03:19.989Z,55
2017-07-28T04:04:29.944Z,55
2017-07-28T04:05:40.217Z,55
2017-07-28T04:06:50.487Z,55
2017-07-28T04:08:00.759Z,55
2017-07-28T04:09:11.031Z,55
2017-07-28T04:10:21.303Z,55
2017-07-28T04:11:31.582Z,60
2017-07-28T04:12:41.849Z,60
2017-07-28T04:13:52.134Z,60
2017-07-28T04:15:02.094Z,65
2017-07-28T04:16:12.051Z,65
2017-07-28T04:17:22.341Z,70
2017-07-28T04:18:32.611Z,70
2017-07-28T04:19:42.884Z,70
2017-07-28T04:20:53.156Z,70
2017-07-28T04:22:03.429Z,70
2017-07-28T04:23:13.709Z,75
2017-07-28T04:24:23.705Z,75
2017-07-28T04:25:33.974Z,80
2017-07-28T04:26:44.245Z,80
2017-07-28T04:27:54.517Z,85
2017-07-28T04:29:04.160Z,90
2017-07-28T04:30:14.115Z,95
2017-07-28T04:31:24.395Z,100
2017-07-28T04:32:34.350Z,105
2017-07-28T04:33:44.620Z,105
2017-07-28T04:34:54.890Z,110
2017-07-28T04:36:04.846Z,110
2017-07-28T04:37:15.116Z,110
2017-07-28T04:38:25.066Z,110
2017-07-28T04:39:35.027Z,110
2017-07-28T04:40:45.301Z,110
2017-07-28T04:41:55.265Z,110
2017-07-28T04:43:05.540Z,110
2017-07-28T04:44:15.494Z,110
2017-07-28T04:45:25.762Z,115
2017-07-28T04:46:36.031Z,115
2017-07-28T04:47:45.983Z,115
2017-07-28T04:48:56.265Z,110
2017-07-28T04:50:06.533Z,105
2017-07-28T04:51:16.490Z,100
2017-07-28T04:52:26.757Z,95
2017-07-28T04:53:36.407Z,90
2017-07-28T04:54:46.360Z,85
2017-07-28T04:55:56.624Z,85
2017-07-28T04:57:06.894Z,90
2017-07-28T04:58:17.169Z,90
2017-07-28T04:59:27.435Z,90
2017-07-28T05:00:37.392Z,95
2017-07-28T05:01:47.661Z,95
2017-07-28T05:02:57.931Z,95
2017-07-28T05:04:08.203Z,95
2017-07-28T05:05:18.475Z,95
2017-07-28T05:06:28.428Z,100
2017-07-28T05:07:38.697Z,100
2017-07-28T05:08:48.961Z,105
2017-07-28T05:09:58.925Z,105
2017-07-28T05:11:09.198Z,110
2017-07-28T05:12:19.469Z,110
2017-07-28T05:13:29.747Z,110
2017-07-28T05:14:39.739Z,110
2017-07-28T05:15:50.013Z,100
2017-07-28T05:17:00.284Z,95
2017-07-28T05:18:10.551Z,90
2017-07-28T05:19:20.822Z,90
2017-07-28T05:20:30.787Z,85
2017-07-28T05:21:40.746Z,85
2017-07-28T05:22:50.698Z,85
2017-07-28T05:24:00.968Z,95
2017-07-28T05:25:11.242Z,105
2017-07-28T05:26:21.517Z,105
2017-07-28T05:27:31.791Z,105
2017-07-28T05:28:42.062Z,105
2017-07-28T05:29:52.013Z,110
2017-07-28T05:31:01.969Z,110
2017-07-28T05:32:11.930Z,110
2017-07-28T05:33:22.198Z,110
2017-07-28T05:34:32.150Z,110
2017-07-28T05:35:42.415Z,110
2017-07-28T05:36:52.694Z,115
2017-07-28T05:38:02.647Z,115
2017-07-28T05:39:12.941Z,115
2017-07-28T05:40:23.218Z,115
2017-07-28T05:41:33.492Z,110
2017-07-28T05:42:43.772Z,115
2017-07-28T05:43:54.051Z,115
2017-07-28T05:45:04.027Z,120
2017-07-28T05:46:13.672Z,125
2017-07-28T05:47:23.947Z,125
2017-07-28T05:48:34.226Z,125
2017-07-28T05:49:44.182Z,125
2017-07-28T05:50:54.456Z,125
2017-07-28T05:52:04.726Z,125
2017-07-28T05:53:14.370Z,125
2017-07-28T05:54:24.348Z,130
2017-07-28T05:55:34.304Z,135
2017-07-28T05:56:44.580Z,140
2017-07-28T05:57:54.850Z,150
2017-07-28T05:59:05.124Z,155
2017-07-28T06:00:15.086Z,160
2017-07-28T06:01:25.366Z,160
2017-07-28T06:02:35.319Z,165
2017-07-28T06:03:45.594Z,170
2017-07-28T06:04:55.551Z,175
2017-07-28T06:06:05.854Z,175
2017-07-28T06:07:16.130Z,180
2017-07-28T06:08:26.457Z,190
2017-07-28T06:09:36.726Z,195
2017-07-28T06:10:46.996Z,205
2017-07-28T06:11:57.266Z,215
2017-07-28T06:13:07.538Z,220
2017-07-28T06:14:17.495Z,225
2017-07-28T06:15:27.766Z,230
2017-07-28T06:16:37.747Z,230
2017-07-28T06:17:48.018Z,230
2017-07-28T06:18:58.294Z,230
2017-07-28T06:20:08.258Z,235
2017-07-28T06:21:18.217Z,235
2017-07-28T06:22:28.489Z,240
2017-07-28T06:23:38.132Z,245
2017-07-28T06:24:48.426Z,245
2017-07-28T06:25:58.700Z,235
2017-07-28T06:27:08.970Z,230
2017-07-28T06:28:18.940Z,230
2017-07-28T06:29:28.897Z,235
2017-07-28T06:30:39.169Z,250
2017-07-28T06:31:49.139Z,240
2017-07-28T06:32:59.406Z,245
2017-07-28T06:34:09.687Z,250
2017-07-28T06:35:19.963Z,250
2017-07-28T06:36:30.239Z,245
2017-07-28T06:37:40.199Z,245
2017-07-28T06:38:50.473Z,250
2017-07-28T06:40:00.440Z,250
2017-07-28T06:41:10.712Z,245
2017-07-28T06:42:20.674Z,245
2017-07-28T06:43:30.639Z,245
2017-07-28T06:44:40.596Z,250
2017-07-28T06:45:50.888Z,265
2017-07-28T06:47:00.214Z,270
2017-07-28T06:48:10.490Z,245
2017-07-28T06:49:20.762Z,230
2017-07-28T06:50:31.035Z,235
2017-07-28T06:51:40.996Z,245
2017-07-28T06:52:51.265Z,265
2017-07-28T06:54:01.550Z,275
2017-07-28T06:55:11.508Z,275
2017-07-28T06:56:21.784Z,270
2017-07-28T06:57:31.741Z,270
2017-07-28T06:58:41.698Z,265
2017-07-28T06:59:51.654Z,250
2017-07-28T07:01:01.937Z,240
2017-07-28T07:02:12.204Z,245
2017-07-28T07:03:22.477Z,250
2017-07-28T07:04:32.749Z,265
2017-07-28T07:05:43.026Z,270
2017-07-28T07:06:53.306Z,270
2017-07-28T07:08:03.576Z,270
2017-07-28T07:09:13.846Z,275
2017-07-28T07:10:24.123Z,280
2017-07-28T07:11:34.404Z,280
2017-07-28T07:12:44.362Z,285
2017-07-28T07:13:54.322Z,275
2017-07-28T07:15:04.287Z,260
2017-07-28T07:16:13.939Z,250
2017-07-28T07:17:24.243Z,245
2017-07-28T07:18:34.221Z,250
2017-07-28T07:19:44.324Z,250
2017-07-28T07:20:54.278Z,235
2017-07-28T07:22:04.549Z,220
2017-07-28T07:23:14.506Z,220
2017-07-28T07:24:24.780Z,245
2017-07-28T07:25:34.741Z,270
2017-07-28T07:26:45.012Z,275
2017-07-28T07:27:55.283Z,285
2017-07-28T07:29:05.247Z,295
2017-07-28T07:30:14.897Z,300
2017-07-28T07:31:25.187Z,295
2017-07-28T07:32:34.830Z,280
2017-07-28T07:33:45.111Z,275
2017-07-28T07:34:55.391Z,280
2017-07-28T07:36:05.673Z,310
2017-07-28T07:37:15.653Z,335
2017-07-28T07:38:25.929Z,350
2017-07-28T07:39:35.890Z,335
2017-07-28T07:40:45.854Z,300
2017-07-28T07:41:56.131Z,280
2017-07-28T07:43:06.410Z,270
2017-07-28T07:44:16.680Z,230
2017-07-28T07:45:26.639Z,190
2017-07-28T07:46:36.926Z,170
2017-07-28T07:47:47.203Z,160
2017-07-28T07:48:57.169Z,155
2017-07-28T07:50:07.446Z,170
2017-07-28T07:51:17.728Z,210
2017-07-28T07:52:27.689Z,250
2017-07-28T07:53:37.643Z,255
2017-07-28T07:54:47.920Z,280
2017-07-28T07:55:57.564Z,290
2017-07-28T07:57:07.523Z,310
2017-07-28T07:58:17.802Z,325
2017-07-28T07:59:27.447Z,355
2017-07-28T08:00:37.415Z,370
2017-07-28T08:01:47.374Z,390
2017-07-28T08:02:57.337Z,390
2017-07-28T08:04:06.980Z,395
2017-07-28T08:05:16.943Z,405
2017-07-28T08:06:26.900Z,425
2017-07-28T08:07:36.858Z,440
2017-07-28T08:08:46.502Z,445
2017-07-28T08:09:56.458Z,445
2017-07-28T08:11:06.732Z,450
2017-07-28T08:12:16.442Z,440
2017-07-28T08:13:26.721Z,430
2017-07-28T08:14:36.368Z,430
2017-07-28T08:15:46.338Z,450
2017-07-28T08:16:56.612Z,465
2017-07-28T08:18:06.903Z,475
2017-07-28T08:19:16.865Z,470
2017-07-28T08:20:27.142Z,475
2017-07-28T08:21:37.422Z,465
2017-07-28T08:22:47.388Z,465
2017-07-28T08:23:57.035Z,475
2017-07-28T08:25:07.000Z,465
2017-07-28T08:26:17.279Z,460
2017-07-28T08:27:27.244Z,480
2017-07-28T08:28:37.516Z,505
2017-07-28T08:29:47.784Z,515
2017-07-28T08:30:58.068Z,510
2017-07-28T08:32:08.342Z,520
2017-07-28T08:33:18.622Z,515
2017-07-28T08:34:28.892Z,525
2017-07-28T08:35:39.168Z,540
2017-07-28T08:36:49.444Z,545
2017-07-28T08:37:59.407Z,545
2017-07-28T08:39:09.693Z,550
2017-07-28T08:40:19.970Z,540
2017-07-28T08:41:29.933Z,525
2017-07-28T08:42:39.270Z,530
2017-07-28T08:43:49.232Z,540
2017-07-28T08:44:59.522Z,560
2017-07-28T08:46:09.490Z,555
2017-07-28T08:47:19.762Z,545
2017-07-28T08:48:30.037Z,550
2017-07-28T08:49:40.316Z,565
2017-07-28T08:50:50.271Z,575
2017-07-28T08:52:00.233Z,580
2017-07-28T08:53:12.193Z,590
2017-07-28T08:54:22.469Z,590
2017-07-28T08:55:32.428Z,575
2017-07-28T08:56:42.704Z,560
2017-07-28T08:57:52.666Z,545
2017-07-28T08:59:02.626Z,530
2017-07-28T09:00:11.971Z,535
2017-07-28T09:01:22.254Z,535
2017-07-28T09:02:32.532Z,525
2017-07-28T09:03:42.807Z,525
2017-07-28T09:04:52.765Z,545
2017-07-28T09:06:02.732Z,555
2017-07-28T09:07:13.025Z,575
2017-07-28T09:08:23.300Z,585
2017-07-28T09:09:33.259Z,605
2017-07-28T09:10:43.232Z,625
2017-07-28T09:11:53.522Z,655
2017-07-28T09:13:03.797Z,660
2017-07-28T09:14:13.450Z,665
2017-07-28T09:15:23.729Z,660
2017-07-28T09:16:33.067Z,640
2017-07-28T09:17:42.720Z,620
2017-07-28T09:18:52.997Z,610
2017-07-28T09:20:03.277Z,595
2017-07-28T09:21:13.548Z,590
2017-07-28T09:22:23.514Z,575
2017-07-28T09:23:33.478Z,555
2017-07-28T09:24:43.757Z,555
2017-07-28T09:25:53.717Z,565
2017-07-28T09:27:03.364Z,580
2017-07-28T09:28:13.344Z,565
2017-07-28T09:29:23.624Z,560
2017-07-28T09:30:33.274Z,555
2017-07-28T09:31:43.557Z,530
2017-07-28T09:32:53.835Z,520
2017-07-28T09:34:03.799Z,520
2017-07-28T09:35:14.076Z,530
2017-07-28T09:36:24.355Z,560
2017-07-28T09:37:34.635Z,595
2017-07-28T09:38:44.599Z,575
2017-07-28T09:39:54.259Z,565
2017-07-28T09:41:04.541Z,545
2017-07-28T09:42:14.821Z,545
2017-07-28T09:43:25.107Z,565
2017-07-28T09:44:35.385Z,595
2017-07-28T09:45:44.715Z,630
2017-07-28T09:46:55.004Z,635
2017-07-28T09:48:04.651Z,610
2017-07-28T09:49:14.933Z,625
2017-07-28T09:50:24.587Z,605
2017-07-28T09:51:34.861Z,575
2017-07-28T09:52:45.139Z,575
2017-07-28T09:53:55.107Z,550
2017-07-28T09:55:05.066Z,530
2017-07-28T09:56:15.343Z,520
2017-07-28T09:57:25.332Z,520
2017-07-28T09:58:35.607Z,470
2017-07-28T09:59:45.883Z,450
2017-07-28T10:00:55.845Z,450
2017-07-28T10:02:06.121Z,430
2017-07-28T10:03:16.399Z,420
2017-07-28T10:04:26.675Z,420
2017-07-28T10:05:36.659Z,410
2017-07-28T10:06:46.935Z,430
2017-07-28T10:07:57.210Z,455
2017-07-28T10:09:06.858Z,450
2017-07-28T10:10:16.821Z,440
2017-07-28T10:11:27.097Z,440
2017-07-28T10:12:37.065Z,470
2017-07-28T10:13:47.028Z,560
2017-07-28T10:14:56.986Z,590
2017-07-28T10:16:06.952Z,600
2017-07-28T10:17:16.921Z,570
2017-07-28T10:18:27.197Z,595
2017-07-28T10:19:37.160Z,605
2017-07-28T10:20:47.133Z,605
2017-07-28T10:21:57.131Z,610
2017-07-28T10:23:07.411Z,675
2017-07-28T10:24:17.059Z,685
2017-07-28T10:25:27.341Z,640
2017-07-28T10:26:37.614Z,625
2017-07-28T10:27:47.921Z,580
2017-07-28T10:28:57.892Z,580
2017-07-28T10:30:07.851Z,600
2017-07-28T10:31:18.127Z,600
2017-07-28T10:32:27.774Z,590
2017-07-28T10:33:37.740Z,530
2017-07-28T10:34:48.015Z,545
2017-07-28T10:35:58.294Z,495
2017-07-28T10:37:07.942Z,480
2017-07-28T10:38:17.907Z,475
2017-07-28T10:39:28.182Z,485
2017-07-28T10:40:38.143Z,475
2017-07-28T10:41:48.421Z,475
2017-07-28T10:42:58.381Z,490
2017-07-28T10:44:08.347Z,525
2017-07-28T10:45:18.626Z,535
2017-07-28T10:46:28.909Z,525
2017-07-28T10:47:38.879Z,555
2017-07-28T10:48:49.162Z,570
2017-07-28T10:49:59.440Z,590
2017-07-28T10:51:09.112Z,610
2017-07-28T10:52:19.395Z,630
2017-07-28T10:53:29.675Z,620
2017-07-28T10:54:39.950Z,585
2017-07-28T10:55:50.221Z,595
2017-07-28T10:57:00.192Z,570
2017-07-28T10:58:10.158Z,575
2017-07-28T10:59:20.442Z,595
2017-07-28T11:00:30.722Z,635
2017-07-28T11:01:40.059Z,645
2017-07-28T11:02:50.020Z,690
2017-07-28T11:04:00.318Z,715
2017-07-28T11:05:10.290Z,735
2017-07-28T11:06:19.936Z,695
2017-07-28T11:07:29.899Z,635
2017-07-28T11:08:40.185Z,630
2017-07-28T11:09:50.141Z,590
2017-07-28T11:11:00.419Z,575
2017-07-28T11:12:10.067Z,570
2017-07-28T11:13:20.066Z,585
2017-07-28T11:14:30.342Z,610
2017-07-28T11:15:40.310Z,655
2017-07-28T11:16:50.591Z,715
2017-07-28T11:18:00.560Z,705
2017-07-28T11:19:10.523Z,670
2017-07-28T11:20:20.488Z,580
2017-07-28T11:21:30.765Z,515
2017-07-28T11:22:40.733Z,495
2017-07-28T11:23:51.012Z,510
2017-07-28T11:25:01.287Z,535
2017-07-28T11:26:11.580Z,600
2017-07-28T11:27:21.856Z,670
2017-07-28T11:28:32.135Z,730
2017-07-28T11:29:42.415Z,645
2017-07-28T11:30:52.688Z,590
2017-07-28T11:32:02.649Z,615
2017-07-28T11:33:12.613Z,655
2017-07-28T11:34:22.890Z,760
2017-07-28T11:35:33.166Z,775
2017-07-28T11:36:43.449Z,1535
2017-07-28T11:37:53.766Z,2875
2017-07-28T11:39:03.724Z,2765
2017-07-28T11:40:14.006Z,2300
2017-07-28T11:41:24.289Z,575
2017-07-28T11:42:34.564Z,525
2017-07-28T11:43:44.533Z,500
2017-07-28T11:44:54.811Z,515
2017-07-28T11:46:04.799Z,540
2017-07-28T11:47:15.076Z,565
2017-07-28T11:48:25.039Z,685
2017-07-28T11:49:35.318Z,905
2017-07-28T11:50:45.277Z,2800
2017-07-28T11:51:55.558Z,3385
2017-07-28T11:53:05.841Z,3320
2017-07-28T11:54:16.114Z,3275
2017-07-28T11:55:26.076Z,3015
2017-07-28T11:56:36.357Z,2810
2017-07-28T11:57:46.390Z,3215
2017-07-28T11:58:56.681Z,3115
2017-07-28T12:00:06.337Z,1990
2017-07-28T12:01:15.993Z,2970
2017-07-28T12:02:26.276Z,780
2017-07-28T12:03:36.560Z,785
2017-07-28T12:04:46.860Z,2225
2017-07-28T12:05:56.824Z,3110
2017-07-28T12:07:06.477Z,555
2017-07-28T12:08:16.771Z,2095
2017-07-28T12:09:26.738Z,525
2017-07-28T12:10:37.018Z,525
2017-07-28T12:11:47.315Z,515
2017-07-28T12:12:57.601Z,2105
2017-07-28T12:14:07.584Z,750
2017-07-28T12:15:17.890Z,3140
2017-07-28T12:16:28.187Z,3165
2017-07-28T12:17:42.137Z,2455
2017-07-28T12:18:52.110Z,830
2017-07-28T12:20:01.760Z,3060
2017-07-28T12:21:12.049Z,3415
2017-07-28T12:22:22.330Z,1355
2017-07-28T12:23:32.614Z,685
2017-07-28T12:24:42.898Z,585
2017-07-28T12:25:52.868Z,620
2017-07-28T12:27:02.837Z,645
2017-07-28T12:28:12.493Z,675
2017-07-28T12:29:22.773Z,1060
2017-07-28T12:30:33.057Z,2640
2017-07-28T12:31:43.341Z,1910
2017-07-28T12:32:53.620Z,1220
2017-07-28T12:34:03.586Z,995
2017-07-28T12:35:13.874Z,665
2017-07-28T12:36:24.155Z,725
2017-07-28T12:37:34.431Z,840
2017-07-28T12:38:44.717Z,865
2017-07-28T12:39:54.684Z,820
2017-07-28T12:41:04.968Z,1625
2017-07-28T12:42:14.930Z,2265
2017-07-28T12:43:25.210Z,2445
2017-07-28T12:44:34.863Z,2360
2017-07-28T12:45:44.837Z,1910
2017-07-28T12:46:55.117Z,590
2017-07-28T12:48:05.088Z,560
2017-07-28T12:49:15.378Z,555
2017-07-28T12:50:25.347Z,720
2017-07-28T12:51:35.342Z,660
2017-07-28T12:52:45.310Z,940
2017-07-28T12:53:55.604Z,1465
2017-07-28T12:55:05.891Z,935
2017-07-28T12:56:15.543Z,2490
2017-07-28T12:57:25.826Z,2505
2017-07-28T12:58:35.804Z,2810
2017-07-28T12:59:46.085Z,965
2017-07-28T13:00:56.056Z,885
2017-07-28T13:02:06.340Z,2360
2017-07-28T13:03:16.624Z,2575
2017-07-28T13:04:26.907Z,640
2017-07-28T13:05:37.189Z,605
2017-07-28T13:06:47.154Z,515
2017-07-28T13:07:57.437Z,510
2017-07-28T13:09:07.732Z,500
2017-07-28T13:10:17.700Z,495
2017-07-28T13:11:27.982Z,495
2017-07-28T13:12:38.270Z,555
2017-07-28T13:13:48.554Z,675
2017-07-28T13:14:58.836Z,1010
2017-07-28T13:16:08.799Z,1525
2017-07-28T13:17:19.076Z,1635
2017-07-28T13:18:29.049Z,1810
2017-07-28T13:19:38.704Z,2430
2017-07-28T13:20:48.979Z,2765
2017-07-28T13:21:59.261Z,2885
2017-07-28T13:23:09.554Z,2830
2017-07-28T13:24:19.529Z,2725
2017-07-28T13:25:29.807Z,2700
2017-07-28T13:26:40.095Z,2900
2017-07-28T13:27:50.376Z,2845
2017-07-28T13:29:00.341Z,2990
2017-07-28T13:30:10.312Z,3155
2017-07-28T13:31:20.285Z,3110
2017-07-28T13:32:30.253Z,3260
2017-07-28T13:33:40.798Z,3295
2017-07-28T13:34:51.085Z,3245
2017-07-28T13:36:01.377Z,3295
2017-07-28T13:37:11.038Z,3270
2017-07-28T13:38:20.698Z,3205
2017-07-28T13:39:30.992Z,3045
2017-07-28T13:40:41.272Z,3110
2017-07-28T13:41:51.560Z,3305
2017-07-28T13:43:01.528Z,3255
2017-07-28T13:44:11.816Z,3210
2017-07-28T13:45:21.798Z,3090
2017-07-28T13:46:32.091Z,3445
2017-07-28T13:47:42.378Z,1020
2017-07-28T13:48:52.672Z,3380
2017-07-28T13:50:02.975Z,515
2017-07-28T13:51:13.260Z,475
2017-07-28T13:52:23.236Z,480
2017-07-28T13:53:33.523Z,490
2017-07-28T13:54:43.504Z,525
2017-07-28T13:55:53.785Z,520
2017-07-28T13:57:04.068Z,540
2017-07-28T13:58:14.350Z,2870
2017-07-28T13:59:24.638Z,3510
2017-07-28T14:00:34.609Z,3520
2017-07-28T14:01:44.586Z,3505
2017-07-28T14:02:54.871Z,3310
2017-07-28T14:04:05.157Z,480
2017-07-28T14:05:15.441Z,425
2017-07-28T14:06:25.096Z,410
2017-07-28T14:07:35.063Z,425
2017-07-28T14:08:45.044Z,515
2017-07-28T14:09:55.336Z,3325
2017-07-28T14:11:05.331Z,3280
2017-07-28T14:12:15.298Z,3300
2017-07-28T14:13:25.583Z,3130
2017-07-28T14:14:35.873Z,3215
2017-07-28T14:15:46.154Z,3240
2017-07-28T14:16:56.437Z,3010
2017-07-28T14:18:06.721Z,1060
2017-07-28T14:19:17.004Z,3210
2017-07-28T14:20:27.292Z,3330
2017-07-28T14:21:37.269Z,3445
2017-07-28T14:22:47.552Z,3255
2017-07-28T14:23:57.836Z,3155
2017-07-28T14:25:07.809Z,3145
2017-07-28T14:26:18.097Z,3230
2017-07-28T14:27:28.380Z,2490
2017-07-28T14:28:38.352Z,765
2017-07-28T14:29:48.640Z,2505
2017-07-28T14:30:58.932Z,2525
2017-07-28T14:32:08.904Z,2760
2017-07-28T14:33:18.868Z,3300
2017-07-28T14:34:29.154Z,3240
2017-07-28T14:35:39.442Z,3185
2017-07-28T14:36:49.414Z,3075
2017-07-28T14:37:59.384Z,2935
2017-07-28T14:39:09.665Z,2890
2017-07-28T14:40:19.952Z,2005
2017-07-28T14:41:29.625Z,1935
2017-07-28T14:42:39.909Z,3020
2017-07-28T14:43:50.199Z,420
2017-07-28T14:45:00.481Z,535
2017-07-28T14:46:10.768Z,1300
2017-07-28T14:47:20.747Z,3140
2017-07-28T14:48:31.026Z,2980
2017-07-28T14:49:41.002Z,3075
2017-07-28T14:50:50.972Z,2990
2017-07-28T14:52:00.939Z,2960
2017-07-28T14:53:10.910Z,2945
2017-07-28T14:54:21.197Z,2955
2017-07-28T14:55:31.167Z,1985
2017-07-28T14:56:41.138Z,1535
2017-07-28T14:57:51.427Z,2455
2017-07-28T14:59:01.710Z,1260
2017-07-28T15:00:12.017Z,450
2017-07-28T15:01:22.298Z,555
2017-07-28T15:02:32.585Z,2810
2017-07-28T15:03:42.559Z,3045
2017-07-28T15:04:52.842Z,1670
2017-07-28T15:06:02.823Z,2925
2017-07-28T15:07:13.129Z,2800
2017-07-28T15:08:23.095Z,500
2017-07-28T15:09:33.372Z,445
2017-07-28T15:10:43.340Z,445
2017-07-28T15:11:53.313Z,605
2017-07-28T15:13:03.291Z,2995
2017-07-28T15:14:13.572Z,1840
2017-07-28T15:15:23.859Z,3020
2017-07-28T15:16:33.824Z,3065
2017-07-28T15:17:44.104Z,2950
2017-07-28T15:18:54.383Z,1815
2017-07-28T15:20:04.661Z,2835
2017-07-28T15:21:14.945Z,2790
2017-07-28T15:22:25.224Z,790
2017-07-28T15:23:35.508Z,495
2017-07-28T15:24:45.786Z,425
2017-07-28T15:25:56.071Z,400
2017-07-28T15:27:06.036Z,445
2017-07-28T15:28:15.689Z,1480
2017-07-28T15:29:25.341Z,535
2017-07-28T15:30:35.621Z,470
2017-07-28T15:31:45.897Z,480
2017-07-28T15:32:55.547Z,600
2017-07-28T15:34:05.830Z,605
2017-07-28T15:35:16.110Z,1350
2017-07-28T15:36:26.390Z,2040
2017-07-28T15:37:36.352Z,1780
2017-07-28T15:38:46.326Z,1715
2017-07-28T15:39:56.288Z,1900
2017-07-28T15:41:06.570Z,2130
2017-07-28T15:42:16.847Z,2460
2017-07-28T15:43:27.127Z,2685
2017-07-28T15:44:37.408Z,2595
2017-07-28T15:45:47.687Z,2580
2017-07-28T15:46:57.969Z,2575
2017-07-28T15:48:07.949Z,2540
2017-07-28T15:49:17.914Z,2455
2017-07-28T15:50:27.886Z,2500
2017-07-28T15:51:38.186Z,2425
2017-07-28T15:52:48.469Z,2355
2017-07-28T15:53:58.743Z,2420
2017-07-28T15:55:09.032Z,2350
2017-07-28T15:56:19.312Z,2230
2017-07-28T15:57:29.288Z,2060
2017-07-28T15:58:39.260Z,1830
2017-07-28T15:59:49.270Z,1765
2017-07-28T16:00:59.555Z,1440
2017-07-28T16:02:09.840Z,990
2017-07-28T16:03:19.803Z,570
2017-07-28T16:04:30.080Z,425
2017-07-28T16:05:40.360Z,385
2017-07-28T16:06:50.641Z,365
2017-07-28T16:08:00.610Z,320
2017-07-28T16:09:10.579Z,310
2017-07-28T16:10:20.861Z,315
2017-07-28T16:11:31.139Z,315
2017-07-28T16:12:41.109Z,310
2017-07-28T16:13:51.072Z,345
2017-07-28T16:15:01.356Z,340